BAW432 EGLL-EHAM
Flight info
| Callsign | BAW432 |
|---|---|
| Flight time | 0h 46m |
| Altitude | 27000 |
| Route | BPK Q295 BRAIN M197 REDFA |
| Aircraft | A320/M-SDE3FGHIRWY/LB1 |
Departure
| Time | 2026-05-06 19:43 |
|---|---|
| Airport | London Heathrow Airport (EGLL) |
Arrival
| Time | 2026-05-06 20:29 |
|---|---|
| Airport | Amsterdam Airport Schiphol (EHAM) |
| Time | Latitude | Longitude | Altitude | Speed | Heading |
|---|---|---|---|---|---|
| 2026-05-06 19:01 | 51.47361 | -0.48587 | 86 ft | 0 kts | 270° |
| 2026-05-06 19:34 | 51.47361 | -0.48569 | 87 ft | 4 kts | 267° |
| 2026-05-06 19:34 | 51.47364 | -0.48527 | 88 ft | 4 kts | 255° |
| 2026-05-06 19:34 | 51.47374 | -0.48489 | 89 ft | 4 kts | 224° |
| 2026-05-06 19:34 | 51.47390 | -0.48475 | 88 ft | 1 kts | 179° |
| 2026-05-06 19:35 | 51.47393 | -0.48475 | 87 ft | 0 kts | 179° |
| 2026-05-06 19:38 | 51.47386 | -0.48475 | 89 ft | 3 kts | 178° |
| 2026-05-06 19:38 | 51.47336 | -0.48474 | 86 ft | 10 kts | 180° |
| 2026-05-06 19:38 | 51.47259 | -0.48473 | 86 ft | 12 kts | 180° |
| 2026-05-06 19:39 | 51.47167 | -0.48473 | 86 ft | 14 kts | 179° |
| 2026-05-06 19:39 | 51.47061 | -0.48471 | 89 ft | 16 kts | 180° |
| 2026-05-06 19:39 | 51.46981 | -0.48469 | 90 ft | 18 kts | 179° |
| 2026-05-06 19:39 | 51.46871 | -0.48470 | 86 ft | 9 kts | 181° |
| 2026-05-06 19:40 | 51.46801 | -0.48472 | 89 ft | 11 kts | 178° |
| 2026-05-06 19:40 | 51.46710 | -0.48469 | 86 ft | 14 kts | 180° |
| 2026-05-06 19:40 | 51.46627 | -0.48469 | 86 ft | 8 kts | 179° |
| 2026-05-06 19:40 | 51.46607 | -0.48468 | 86 ft | 0 kts | 179° |
| 2026-05-06 19:41 | 51.46601 | -0.48468 | 86 ft | 3 kts | 179° |
| 2026-05-06 19:41 | 51.46568 | -0.48469 | 86 ft | 7 kts | 181° |
| 2026-05-06 19:41 | 51.46504 | -0.48466 | 86 ft | 10 kts | 168° |
| 2026-05-06 19:41 | 51.46479 | -0.48363 | 87 ft | 11 kts | 90° |
| 2026-05-06 19:42 | 51.46479 | -0.48333 | 87 ft | 0 kts | 89° |
| 2026-05-06 19:42 | 51.46479 | -0.48332 | 87 ft | 1 kts | 89° |
| 2026-05-06 19:42 | 51.46481 | -0.48119 | 88 ft | 51 kts | 90° |
| 2026-05-06 19:42 | 51.46483 | -0.47200 | 87 ft | 111 kts | 89° |
| 2026-05-06 19:43 | 51.46489 | -0.45713 | 89 ft | 154 kts | 89° |
| 2026-05-06 19:43 | 51.46489 | -0.43946 | 633 ft | 154 kts | 89° |
| 2026-05-06 19:43 | 51.46516 | -0.42230 | 1304 ft | 154 kts | 85° |
| 2026-05-06 19:43 | 51.46728 | -0.40463 | 1673 ft | 170 kts | 54° |
| 2026-05-06 19:44 | 51.47592 | -0.39050 | 1922 ft | 189 kts | 41° |
| 2026-05-06 19:44 | 51.48542 | -0.37458 | 2215 ft | 209 kts | 46° |
| 2026-05-06 19:44 | 51.49550 | -0.35593 | 2557 ft | 233 kts | 48° |
| 2026-05-06 19:44 | 51.50635 | -0.33523 | 3180 ft | 248 kts | 49° |
| 2026-05-06 19:45 | 51.51746 | -0.31360 | 4038 ft | 254 kts | 51° |
| 2026-05-06 19:45 | 51.52569 | -0.28811 | 4897 ft | 262 kts | 70° |
| 2026-05-06 19:45 | 51.53154 | -0.26001 | 5692 ft | 269 kts | 70° |
| 2026-05-06 19:45 | 51.53905 | -0.23245 | 6075 ft | 271 kts | 54° |
| 2026-05-06 19:46 | 51.55169 | -0.21033 | 6956 ft | 270 kts | 37° |
| 2026-05-06 19:46 | 51.56798 | -0.19543 | 7792 ft | 271 kts | 21° |
| 2026-05-06 19:46 | 51.58553 | -0.18373 | 8643 ft | 275 kts | 21° |
| 2026-05-06 19:46 | 51.60383 | -0.17427 | 9459 ft | 278 kts | 14° |
| 2026-05-06 19:47 | 51.62255 | -0.16565 | 10234 ft | 283 kts | 15° |
| 2026-05-06 19:47 | 51.64227 | -0.15659 | 10500 ft | 306 kts | 14° |
| 2026-05-06 19:47 | 51.66348 | -0.14682 | 10691 ft | 328 kts | 14° |
| 2026-05-06 19:47 | 51.68586 | -0.13648 | 11150 ft | 339 kts | 14° |
| 2026-05-06 19:48 | 51.70824 | -0.12368 | 11757 ft | 346 kts | 25° |
| 2026-05-06 19:48 | 51.72822 | -0.10168 | 12403 ft | 352 kts | 41° |
| 2026-05-06 19:48 | 51.74412 | -0.07128 | 13056 ft | 359 kts | 56° |
| 2026-05-06 19:48 | 51.75462 | -0.03455 | 13717 ft | 365 kts | 72° |
| 2026-05-06 19:49 | 51.75932 | 0.00606 | 14300 ft | 370 kts | 81° |
| 2026-05-06 19:49 | 51.76278 | 0.04742 | 14882 ft | 374 kts | 81° |
| 2026-05-06 19:49 | 51.76621 | 0.08914 | 15450 ft | 377 kts | 81° |
| 2026-05-06 19:49 | 51.76962 | 0.13139 | 16013 ft | 381 kts | 81° |
| 2026-05-06 19:50 | 51.77299 | 0.17336 | 16569 ft | 384 kts | 82° |
| 2026-05-06 19:50 | 51.77648 | 0.21635 | 17132 ft | 387 kts | 82° |
| 2026-05-06 19:50 | 51.78001 | 0.25966 | 17706 ft | 390 kts | 82° |
| 2026-05-06 19:50 | 51.78358 | 0.30334 | 18276 ft | 394 kts | 82° |
| 2026-05-06 19:51 | 51.78716 | 0.34738 | 18780 ft | 397 kts | 82° |
| 2026-05-06 19:51 | 51.79073 | 0.39170 | 19293 ft | 400 kts | 82° |
| 2026-05-06 19:51 | 51.79431 | 0.43654 | 19796 ft | 403 kts | 82° |
| 2026-05-06 19:51 | 51.79787 | 0.48166 | 20314 ft | 406 kts | 82° |
| 2026-05-06 19:52 | 51.80144 | 0.52725 | 20783 ft | 410 kts | 82° |
| 2026-05-06 19:52 | 51.80501 | 0.57320 | 21246 ft | 414 kts | 82° |
| 2026-05-06 19:52 | 51.80857 | 0.61956 | 21706 ft | 417 kts | 82° |
| 2026-05-06 19:52 | 51.81313 | 0.66592 | 22020 ft | 417 kts | 76° |
| 2026-05-06 19:53 | 51.81994 | 0.71040 | 22015 ft | 399 kts | 75° |
| 2026-05-06 19:53 | 51.82656 | 0.75310 | 22016 ft | 383 kts | 75° |
| 2026-05-06 19:53 | 51.83290 | 0.79396 | 22016 ft | 367 kts | 75° |
| 2026-05-06 19:53 | 51.83914 | 0.83344 | 22016 ft | 360 kts | 74° |
| 2026-05-06 19:54 | 51.84595 | 0.87230 | 22014 ft | 359 kts | 72° |
| 2026-05-06 19:54 | 51.85316 | 0.91099 | 22013 ft | 358 kts | 72° |
| 2026-05-06 19:54 | 51.86042 | 0.94929 | 22010 ft | 358 kts | 72° |
| 2026-05-06 19:54 | 51.86761 | 0.98743 | 22011 ft | 359 kts | 72° |
| 2026-05-06 19:55 | 51.87480 | 1.02607 | 22015 ft | 359 kts | 72° |
| 2026-05-06 19:55 | 51.88188 | 1.06485 | 22013 ft | 359 kts | 73° |
| 2026-05-06 19:55 | 51.88890 | 1.10373 | 22014 ft | 359 kts | 73° |
| 2026-05-06 19:55 | 51.89594 | 1.14268 | 22205 ft | 362 kts | 73° |
| 2026-05-06 19:56 | 51.90299 | 1.18177 | 22739 ft | 363 kts | 73° |
| 2026-05-06 19:56 | 51.91004 | 1.22124 | 23261 ft | 366 kts | 73° |
| 2026-05-06 19:56 | 51.91707 | 1.26097 | 23730 ft | 369 kts | 73° |
| 2026-05-06 19:56 | 51.92418 | 1.30108 | 23944 ft | 371 kts | 73° |
| 2026-05-06 19:57 | 51.93132 | 1.34130 | 24009 ft | 371 kts | 73° |
| 2026-05-06 19:57 | 51.93846 | 1.38143 | 24013 ft | 371 kts | 73° |
| 2026-05-06 19:57 | 51.94562 | 1.42171 | 24014 ft | 371 kts | 73° |
| 2026-05-06 19:57 | 51.95274 | 1.46190 | 24013 ft | 371 kts | 73° |
| 2026-05-06 19:58 | 51.95986 | 1.50214 | 24014 ft | 372 kts | 73° |
| 2026-05-06 19:58 | 51.96705 | 1.54283 | 24016 ft | 383 kts | 73° |
| 2026-05-06 19:58 | 51.97452 | 1.58516 | 24015 ft | 399 kts | 73° |
| 2026-05-06 19:58 | 51.98225 | 1.62933 | 24014 ft | 414 kts | 74° |
| 2026-05-06 19:59 | 51.99023 | 1.67502 | 24017 ft | 427 kts | 74° |
| 2026-05-06 19:59 | 51.99815 | 1.72171 | 24016 ft | 431 kts | 75° |
| 2026-05-06 19:59 | 52.00565 | 1.76883 | 24012 ft | 432 kts | 76° |
| 2026-05-06 19:59 | 52.01289 | 1.81625 | 24010 ft | 432 kts | 76° |
| 2026-05-06 20:00 | 52.02002 | 1.86363 | 24011 ft | 432 kts | 76° |
| 2026-05-06 20:00 | 52.02717 | 1.91109 | 24013 ft | 433 kts | 76° |
| 2026-05-06 20:00 | 52.03438 | 1.95853 | 24016 ft | 432 kts | 76° |
| 2026-05-06 20:00 | 52.04165 | 2.00595 | 24011 ft | 434 kts | 76° |
| 2026-05-06 20:01 | 52.04898 | 2.05350 | 24009 ft | 434 kts | 76° |
| 2026-05-06 20:01 | 52.05630 | 2.10104 | 24007 ft | 434 kts | 76° |
| 2026-05-06 20:01 | 52.06359 | 2.14865 | 24007 ft | 434 kts | 76° |
| 2026-05-06 20:01 | 52.07082 | 2.19620 | 24007 ft | 434 kts | 76° |
| 2026-05-06 20:02 | 52.07805 | 2.24383 | 24008 ft | 434 kts | 76° |
| 2026-05-06 20:02 | 52.08524 | 2.29150 | 24007 ft | 434 kts | 76° |
| 2026-05-06 20:02 | 52.09238 | 2.33911 | 24008 ft | 434 kts | 76° |
| 2026-05-06 20:02 | 52.09950 | 2.38675 | 24001 ft | 434 kts | 76° |
| 2026-05-06 20:03 | 52.10661 | 2.43442 | 24002 ft | 434 kts | 76° |
| 2026-05-06 20:03 | 52.11520 | 2.48147 | 23998 ft | 435 kts | 68° |
| 2026-05-06 20:03 | 52.12830 | 2.52569 | 24001 ft | 434 kts | 59° |
| 2026-05-06 20:03 | 52.14380 | 2.56792 | 23998 ft | 434 kts | 58° |
| 2026-05-06 20:04 | 52.15921 | 2.61018 | 24000 ft | 434 kts | 58° |
| 2026-05-06 20:04 | 52.17453 | 2.65245 | 24002 ft | 434 kts | 58° |
| 2026-05-06 20:04 | 52.18985 | 2.69494 | 24003 ft | 434 kts | 59° |
| 2026-05-06 20:04 | 52.20510 | 2.73729 | 23763 ft | 433 kts | 59° |
| 2026-05-06 20:05 | 52.22047 | 2.78008 | 22577 ft | 441 kts | 59° |
| 2026-05-06 20:05 | 52.23586 | 2.82299 | 21295 ft | 436 kts | 58° |
| 2026-05-06 20:05 | 52.25105 | 2.86544 | 20125 ft | 430 kts | 58° |
| 2026-05-06 20:05 | 52.26595 | 2.90716 | 19134 ft | 421 kts | 58° |
| 2026-05-06 20:06 | 52.28025 | 2.94732 | 18892 ft | 394 kts | 58° |
| 2026-05-06 20:06 | 52.29355 | 2.98463 | 18757 ft | 368 kts | 58° |
| 2026-05-06 20:06 | 52.30624 | 3.02020 | 17939 ft | 364 kts | 58° |
| 2026-05-06 20:06 | 52.31900 | 3.05595 | 17195 ft | 361 kts | 58° |
| 2026-05-06 20:07 | 52.33184 | 3.09195 | 16950 ft | 369 kts | 58° |
| 2026-05-06 20:07 | 52.34478 | 3.12831 | 16651 ft | 369 kts | 58° |
| 2026-05-06 20:07 | 52.35751 | 3.16417 | 16304 ft | 370 kts | 58° |
| 2026-05-06 20:07 | 52.37045 | 3.20078 | 16035 ft | 361 kts | 59° |
| 2026-05-06 20:08 | 52.38278 | 3.23580 | 15831 ft | 350 kts | 57° |
| 2026-05-06 20:08 | 52.39471 | 3.26965 | 15337 ft | 343 kts | 59° |
| 2026-05-06 20:08 | 52.40641 | 3.30291 | 14839 ft | 332 kts | 58° |
| 2026-05-06 20:08 | 52.41780 | 3.33538 | 14352 ft | 324 kts | 59° |
| 2026-05-06 20:09 | 52.42889 | 3.36703 | 13860 ft | 317 kts | 58° |
| 2026-05-06 20:09 | 52.43978 | 3.39818 | 13329 ft | 313 kts | 59° |
| 2026-05-06 20:09 | 52.44863 | 3.43069 | 12797 ft | 311 kts | 70° |
| 2026-05-06 20:09 | 52.45422 | 3.46467 | 12273 ft | 307 kts | 76° |
| 2026-05-06 20:10 | 52.45905 | 3.49877 | 11765 ft | 308 kts | 75° |
| 2026-05-06 20:10 | 52.46399 | 3.53321 | 11251 ft | 312 kts | 76° |
| 2026-05-06 20:10 | 52.46901 | 3.56803 | 10758 ft | 315 kts | 75° |
| 2026-05-06 20:10 | 52.47312 | 3.60352 | 10255 ft | 319 kts | 86° |
| 2026-05-06 20:11 | 52.47040 | 3.63944 | 9764 ft | 321 kts | 108° |
| 2026-05-06 20:11 | 52.46195 | 3.67349 | 9219 ft | 322 kts | 113° |
| 2026-05-06 20:11 | 52.45308 | 3.70719 | 8685 ft | 320 kts | 113° |
| 2026-05-06 20:11 | 52.44443 | 3.73966 | 8422 ft | 300 kts | 112° |
| 2026-05-06 20:12 | 52.43630 | 3.77005 | 8213 ft | 285 kts | 112° |
| 2026-05-06 20:12 | 52.42843 | 3.79960 | 7956 ft | 281 kts | 112° |
| 2026-05-06 20:12 | 52.42069 | 3.82884 | 7692 ft | 279 kts | 112° |
| 2026-05-06 20:12 | 52.41307 | 3.85765 | 7452 ft | 278 kts | 112° |
| 2026-05-06 20:13 | 52.40545 | 3.88644 | 7191 ft | 274 kts | 111° |
| 2026-05-06 20:13 | 52.39788 | 3.91500 | 6937 ft | 272 kts | 110° |
| 2026-05-06 20:13 | 52.39036 | 3.94331 | 6687 ft | 270 kts | 111° |
| 2026-05-06 20:13 | 52.38289 | 3.97140 | 6441 ft | 268 kts | 111° |
| 2026-05-06 20:14 | 52.37546 | 3.99928 | 6192 ft | 266 kts | 110° |
| 2026-05-06 20:14 | 52.36811 | 4.02688 | 5922 ft | 265 kts | 110° |
| 2026-05-06 20:14 | 52.36075 | 4.05444 | 5661 ft | 263 kts | 110° |
| 2026-05-06 20:14 | 52.35344 | 4.08173 | 5399 ft | 262 kts | 111° |
| 2026-05-06 20:15 | 52.34613 | 4.10900 | 5143 ft | 261 kts | 111° |
| 2026-05-06 20:15 | 52.33882 | 4.13625 | 4887 ft | 261 kts | 111° |
| 2026-05-06 20:15 | 52.33154 | 4.16334 | 4618 ft | 259 kts | 111° |
| 2026-05-06 20:15 | 52.32427 | 4.19035 | 4414 ft | 258 kts | 110° |
| 2026-05-06 20:16 | 52.31706 | 4.21722 | 4290 ft | 257 kts | 110° |
| 2026-05-06 20:16 | 52.30997 | 4.24354 | 4155 ft | 248 kts | 109° |
| 2026-05-06 20:16 | 52.30310 | 4.26896 | 4022 ft | 240 kts | 111° |
| 2026-05-06 20:16 | 52.29643 | 4.29351 | 3892 ft | 231 kts | 110° |
| 2026-05-06 20:17 | 52.29009 | 4.31686 | 3753 ft | 226 kts | 110° |
| 2026-05-06 20:17 | 52.28254 | 4.33932 | 3630 ft | 229 kts | 128° |
| 2026-05-06 20:17 | 52.27000 | 4.35566 | 3491 ft | 232 kts | 137° |
| 2026-05-06 20:17 | 52.26027 | 4.37568 | 3360 ft | 223 kts | 107° |
| 2026-05-06 20:18 | 52.25861 | 4.40007 | 3235 ft | 215 kts | 77° |
| 2026-05-06 20:18 | 52.26416 | 4.42254 | 3111 ft | 215 kts | 63° |
| 2026-05-06 20:18 | 52.26649 | 4.44608 | 2964 ft | 215 kts | 100° |
| 2026-05-06 20:18 | 52.25835 | 4.46596 | 2834 ft | 216 kts | 143° |
| 2026-05-06 20:19 | 52.24432 | 4.47480 | 2713 ft | 216 kts | 157° |
| 2026-05-06 20:19 | 52.23177 | 4.48690 | 2579 ft | 207 kts | 131° |
| 2026-05-06 20:19 | 52.22319 | 4.50507 | 2453 ft | 201 kts | 114° |
| 2026-05-06 20:19 | 52.21894 | 4.52641 | 2322 ft | 196 kts | 93° |
| 2026-05-06 20:20 | 52.21730 | 4.54833 | 2186 ft | 196 kts | 104° |
| 2026-05-06 20:20 | 52.20928 | 4.56633 | 2065 ft | 205 kts | 141° |
| 2026-05-06 20:20 | 52.19552 | 4.57317 | 1986 ft | 216 kts | 179° |
| 2026-05-06 20:20 | 52.18108 | 4.56626 | 1993 ft | 221 kts | 213° |
| 2026-05-06 20:21 | 52.17116 | 4.54758 | 2005 ft | 221 kts | 240° |
| 2026-05-06 20:21 | 52.16628 | 4.52417 | 2008 ft | 219 kts | 263° |
| 2026-05-06 20:21 | 52.16276 | 4.50000 | 2004 ft | 220 kts | 258° |
| 2026-05-06 20:21 | 52.15913 | 4.47593 | 2005 ft | 220 kts | 258° |
| 2026-05-06 20:22 | 52.15735 | 4.45132 | 1996 ft | 217 kts | 280° |
| 2026-05-06 20:22 | 52.16222 | 4.42880 | 2009 ft | 208 kts | 309° |
| 2026-05-06 20:22 | 52.17233 | 4.41333 | 2021 ft | 195 kts | 335° |
| 2026-05-06 20:22 | 52.18487 | 4.40709 | 2003 ft | 186 kts | 0° |
| 2026-05-06 20:23 | 52.19743 | 4.40986 | 2000 ft | 181 kts | 23° |
| 2026-05-06 20:23 | 52.20474 | 4.41618 | 1996 ft | 179 kts | 39° |
| 2026-05-06 20:23 | 52.21467 | 4.43723 | 1991 ft | 179 kts | 73° |
| 2026-05-06 20:23 | 52.21506 | 4.45073 | 2006 ft | 180 kts | 91° |
| 2026-05-06 20:24 | 52.21494 | 4.47059 | 2012 ft | 172 kts | 84° |
| 2026-05-06 20:24 | 52.21542 | 4.49002 | 2015 ft | 171 kts | 84° |
| 2026-05-06 20:24 | 52.21590 | 4.50932 | 2005 ft | 171 kts | 84° |
| 2026-05-06 20:24 | 52.21640 | 4.52862 | 2007 ft | 170 kts | 83° |
| 2026-05-06 20:25 | 52.21881 | 4.54722 | 2002 ft | 168 kts | 69° |
| 2026-05-06 20:25 | 52.22359 | 4.56457 | 2002 ft | 168 kts | 61° |
| 2026-05-06 20:25 | 52.22929 | 4.58116 | 2001 ft | 167 kts | 58° |
| 2026-05-06 20:25 | 52.23532 | 4.59745 | 1933 ft | 165 kts | 57° |
| 2026-05-06 20:26 | 52.24094 | 4.61223 | 1782 ft | 144 kts | 57° |
| 2026-05-06 20:26 | 52.24608 | 4.62559 | 1608 ft | 136 kts | 57° |
| 2026-05-06 20:26 | 52.25108 | 4.63843 | 1445 ft | 132 kts | 56° |
| 2026-05-06 20:26 | 52.25594 | 4.65122 | 1260 ft | 133 kts | 59° |
| 2026-05-06 20:27 | 52.26075 | 4.66382 | 1175 ft | 130 kts | 53° |
| 2026-05-06 20:27 | 52.26570 | 4.67636 | 987 ft | 132 kts | 57° |
| 2026-05-06 20:27 | 52.27048 | 4.68913 | 752 ft | 131 kts | 56° |
| 2026-05-06 20:27 | 52.27539 | 4.70164 | 540 ft | 131 kts | 55° |
| 2026-05-06 20:28 | 52.28019 | 4.71437 | 367 ft | 135 kts | 53° |
| 2026-05-06 20:28 | 52.28522 | 4.72692 | 217 ft | 132 kts | 56° |
| 2026-05-06 20:28 | 52.29005 | 4.73969 | 20 ft | 132 kts | 57° |
| 2026-05-06 20:28 | 52.29444 | 4.75111 | -3 ft | 99 kts | 57° |
| 2026-05-06 20:29 | 52.29739 | 4.75881 | -2 ft | 70 kts | 58° |
| 2026-05-06 20:29 | 52.29979 | 4.76506 | -2 ft | 61 kts | 58° |
| 2026-05-06 20:29 | 52.30189 | 4.77044 | -3 ft | 49 kts | 58° |
| 2026-05-06 20:29 | 52.30300 | 4.77303 | -4 ft | 24 kts | 41° |
| 2026-05-06 20:30 | 52.30407 | 4.77397 | -2 ft | 12 kts | 24° |
| 2026-05-06 20:30 | 52.30489 | 4.77405 | -1 ft | 2 kts | 338° |
| 2026-05-06 20:30 | 52.30529 | 4.77372 | -1 ft | 10 kts | 329° |
| 2026-05-06 20:31 | 52.30596 | 4.77295 | -1 ft | 13 kts | 324° |
| 2026-05-06 20:31 | 52.30648 | 4.77190 | -1 ft | 12 kts | 280° |
| 2026-05-06 20:31 | 52.30651 | 4.77036 | -1 ft | 13 kts | 272° |
| 2026-05-06 20:31 | 52.30655 | 4.76934 | -1 ft | 8 kts | 273° |
| 2026-05-06 20:32 | 52.30657 | 4.76921 | -1 ft | 0 kts | 295° |
| 2026-05-06 20:32 | 52.30660 | 4.76920 | -1 ft | 0 kts | 328° |
| 2026-05-06 20:32 | 52.30662 | 4.76922 | -1 ft | 0 kts | 354° |
| 2026-05-06 20:32 | 52.30675 | 4.76927 | -1 ft | 5 kts | 11° |
| 2026-05-06 20:33 | 52.30694 | 4.76939 | -1 ft | 3 kts | 26° |
| 2026-05-06 20:33 | 52.30707 | 4.76951 | -1 ft | 1 kts | 31° |
| 2026-05-06 20:33 | 52.30715 | 4.76959 | -1 ft | 0 kts | 31° |